createdAt,value
2019-01-16T00:02:27.052Z,19.70
2019-01-16T00:05:10.396Z,21.77
2019-01-16T00:07:47.695Z,16.23
2019-01-16T00:10:15.930Z,22.00
2019-01-16T00:12:44.086Z,16.13
2019-01-16T00:15:18.856Z,19.37
2019-01-16T00:17:47.338Z,17.03
2019-01-16T00:20:18.854Z,15.80
2019-01-16T00:22:50.376Z,20.90
2019-01-16T00:25:18.752Z,27.57
2019-01-16T00:28:03.705Z,22.03
2019-01-16T00:30:37.723Z,17.43
2019-01-16T00:33:09.136Z,14.23
2019-01-16T00:35:49.673Z,15.73
2019-01-16T00:38:18.014Z,12.20
2019-01-16T00:41:01.295Z,14.60
2019-01-16T00:43:47.780Z,17.60
2019-01-16T00:46:25.118Z,12.70
2019-01-16T00:49:11.490Z,14.33
2019-01-16T00:51:48.804Z,12.90
2019-01-16T00:54:17.177Z,17.97
2019-01-16T00:57:00.783Z,14.00
2019-01-16T00:59:37.898Z,16.00
2019-01-16T01:02:06.288Z,19.90
2019-01-16T01:04:49.743Z,12.97
2019-01-16T01:07:30.389Z,18.60
2019-01-16T01:10:01.451Z,13.57
2019-01-16T01:12:42.063Z,15.03
2019-01-16T01:15:25.471Z,14.23
2019-01-16T01:18:10.814Z,13.43
2019-01-16T01:20:57.869Z,16.70
2019-01-16T01:23:33.107Z,21.60
2019-01-16T01:26:16.662Z,12.77
2019-01-16T01:29:02.471Z,16.57
2019-01-16T01:31:40.131Z,15.17
2019-01-16T01:34:16.983Z,14.53
2019-01-16T01:36:45.440Z,19.23
2019-01-16T01:39:19.637Z,15.13
2019-01-16T01:42:04.690Z,14.50
2019-01-16T01:44:33.091Z,16.33
2019-01-16T01:47:04.387Z,15.97
2019-01-16T01:49:32.712Z,20.97
2019-01-16T01:52:16.211Z,17.23
2019-01-16T01:54:47.014Z,18.77
2019-01-16T01:57:32.419Z,19.63
2019-01-16T02:00:03.351Z,20.23
2019-01-16T02:02:40.581Z,15.60
2019-01-16T02:05:15.944Z,22.53
2019-01-16T02:07:59.903Z,17.30
2019-01-16T02:10:31.780Z,17.50
2019-01-16T02:13:02.974Z,20.43
2019-01-16T02:15:34.736Z,18.20
2019-01-16T02:18:11.876Z,17.43
2019-01-16T02:20:45.932Z,15.67
2019-01-16T02:23:17.307Z,17.30
2019-01-16T02:25:46.112Z,18.93
2019-01-16T02:28:14.299Z,22.60
2019-01-16T02:30:48.944Z,20.67
2019-01-16T02:33:26.109Z,23.00
2019-01-16T02:36:10.682Z,18.97
2019-01-16T02:38:44.932Z,23.17
2019-01-16T02:41:16.067Z,19.40
2019-01-16T02:43:59.390Z,20.10
2019-01-16T02:46:30.611Z,22.10
2019-01-16T02:49:01.635Z,23.50
2019-01-16T02:51:32.594Z,24.37
2019-01-16T02:54:06.858Z,20.50
2019-01-16T02:56:35.139Z,23.00
2019-01-16T02:59:03.702Z,25.20
2019-01-16T03:01:47.304Z,18.10
2019-01-16T03:04:34.084Z,18.33
2019-01-16T03:07:11.103Z,18.93
2019-01-16T03:09:50.018Z,19.37
2019-01-16T03:12:19.608Z,20.47
2019-01-16T03:14:54.077Z,21.03
2019-01-16T03:17:40.309Z,21.07
2019-01-16T03:20:21.058Z,21.17
2019-01-16T03:22:49.219Z,21.27
2019-01-16T03:25:20.710Z,22.90
2019-01-16T03:28:06.033Z,19.80
2019-01-16T03:30:40.332Z,20.57
2019-01-16T03:33:24.471Z,19.10
2019-01-16T03:36:09.963Z,20.20
2019-01-16T03:38:38.435Z,18.70
2019-01-16T03:41:25.138Z,20.40
2019-01-16T03:44:09.863Z,18.10
2019-01-16T03:46:38.196Z,18.43
2019-01-16T03:49:23.128Z,19.03
2019-01-16T03:52:00.390Z,21.20
2019-01-16T03:54:34.614Z,17.13
2019-01-16T03:57:05.628Z,19.83
2019-01-16T03:59:40.024Z,16.20
2019-01-16T04:02:23.417Z,16.93
2019-01-16T04:05:00.999Z,17.90
2019-01-16T04:07:35.223Z,19.93
2019-01-16T04:10:03.568Z,18.03
2019-01-16T04:12:48.796Z,21.53
2019-01-16T04:15:16.955Z,19.53
2019-01-16T04:17:45.241Z,16.67
2019-01-16T04:20:19.252Z,20.83
2019-01-16T04:22:50.642Z,18.53
2019-01-16T04:25:28.196Z,17.93
2019-01-16T04:28:13.076Z,17.60
2019-01-16T04:30:57.965Z,18.70
2019-01-16T04:33:26.220Z,16.93
2019-01-16T04:36:03.720Z,16.50
2019-01-16T04:38:32.151Z,17.40
2019-01-16T04:41:00.502Z,20.40
2019-01-16T04:43:37.936Z,20.47
2019-01-16T04:46:15.135Z,20.07
2019-01-16T04:48:46.317Z,23.10
2019-01-16T04:51:14.758Z,17.83
2019-01-16T04:53:42.928Z,21.97
2019-01-16T04:56:14.290Z,20.20
2019-01-16T04:58:59.196Z,21.00
2019-01-16T05:01:39.396Z,20.40
2019-01-16T05:04:11.081Z,20.43
2019-01-16T05:06:45.128Z,20.77
2019-01-16T05:09:19.091Z,27.93
2019-01-16T05:11:47.493Z,18.37
2019-01-16T05:14:27.814Z,24.07
2019-01-16T05:16:56.164Z,21.10
2019-01-16T05:19:27.052Z,21.70
2019-01-16T05:22:14.141Z,23.57
2019-01-16T05:24:45.214Z,23.97
2019-01-16T05:27:29.962Z,20.10
2019-01-16T05:29:58.153Z,20.00
2019-01-16T05:32:49.461Z,20.30
2019-01-16T05:35:20.799Z,24.33
2019-01-16T05:37:51.827Z,23.50
2019-01-16T05:40:22.981Z,24.83
2019-01-16T05:42:54.014Z,24.50
2019-01-16T05:45:22.316Z,23.47
2019-01-16T05:47:50.517Z,26.73
2019-01-16T05:50:18.962Z,23.17
2019-01-16T05:52:47.134Z,26.73
2019-01-16T05:55:21.775Z,23.80
2019-01-16T05:57:50.019Z,24.70
2019-01-16T06:00:30.246Z,25.43
2019-01-16T06:03:11.901Z,27.97
2019-01-16T06:05:42.877Z,26.13
2019-01-16T06:08:27.709Z,22.27
2019-01-16T06:10:58.726Z,24.70
2019-01-16T06:13:36.148Z,28.37
2019-01-16T06:16:05.674Z,24.30
2019-01-16T06:18:33.968Z,25.20
2019-01-16T06:21:02.383Z,29.83
2019-01-16T06:23:42.655Z,26.50
2019-01-16T06:26:17.156Z,29.47
2019-01-16T06:28:48.593Z,25.80
2019-01-16T06:31:16.763Z,27.23
2019-01-16T06:34:01.728Z,27.80
2019-01-16T06:36:48.119Z,30.50
2019-01-16T06:39:16.415Z,29.37
2019-01-16T06:41:47.566Z,29.37
2019-01-16T06:44:15.808Z,30.13
2019-01-16T06:46:43.979Z,33.57
2019-01-16T06:49:14.883Z,29.10
2019-01-16T06:51:44.267Z,28.33
2019-01-16T06:54:18.737Z,30.03
2019-01-16T06:56:49.726Z,33.47
2019-01-16T06:59:20.769Z,31.20
2019-01-16T07:02:06.188Z,31.43
2019-01-16T07:04:53.036Z,29.90
2019-01-16T07:07:24.422Z,29.70
2019-01-16T07:09:58.974Z,29.03
2019-01-16T07:12:43.794Z,28.20
2019-01-16T07:15:15.099Z,31.67
2019-01-16T07:17:46.637Z,29.00
2019-01-16T07:20:15.679Z,30.60
2019-01-16T07:22:59.679Z,27.73
2019-01-16T07:25:41.907Z,30.07
2019-01-16T07:28:10.653Z,29.20
2019-01-16T07:30:51.105Z,31.67
2019-01-16T07:33:27.968Z,30.50
2019-01-16T07:36:20.873Z,29.13
2019-01-16T07:38:52.467Z,30.73
2019-01-16T07:41:30.429Z,29.50
2019-01-16T07:50:26.732Z,26.63
2019-01-16T07:53:07.158Z,28.93
2019-01-16T07:55:35.597Z,29.07
2019-01-16T07:58:04.109Z,28.77
2019-01-16T08:00:32.548Z,25.33
2019-01-16T08:03:01.144Z,22.97
2019-01-16T08:05:38.520Z,25.77
2019-01-16T08:08:07.101Z,27.20
2019-01-16T08:10:50.485Z,25.93
2019-01-16T08:13:28.360Z,25.20
2019-01-16T08:16:13.691Z,28.43
2019-01-16T08:18:44.697Z,22.20
2019-01-16T08:21:12.992Z,23.63
2019-01-16T08:23:42.060Z,21.87
2019-01-16T08:26:22.404Z,23.07
2019-01-16T08:28:53.760Z,23.97
2019-01-16T08:31:38.912Z,20.17
2019-01-16T08:34:13.756Z,23.60
2019-01-16T08:36:44.925Z,24.40
2019-01-16T08:39:31.705Z,20.60
2019-01-16T08:42:16.794Z,22.87
2019-01-16T08:45:01.670Z,27.23
2019-01-16T08:47:33.309Z,25.10
2019-01-16T08:50:04.331Z,21.90
2019-01-16T08:52:49.851Z,23.20
2019-01-16T08:55:18.739Z,25.10
2019-01-16T08:58:03.537Z,19.77
2019-01-16T09:00:38.165Z,18.03
2019-01-16T09:03:12.136Z,17.80
2019-01-16T09:05:49.246Z,18.40
2019-01-16T09:08:25.069Z,19.03
2019-01-16T09:10:56.766Z,18.70
2019-01-16T09:13:31.204Z,20.07
2019-01-16T09:16:02.550Z,16.87
2019-01-16T09:18:30.881Z,21.53
2019-01-16T09:20:59.664Z,19.37
2019-01-16T09:23:27.916Z,18.90
2019-01-16T09:25:56.675Z,20.27
2019-01-16T09:28:28.181Z,17.70
2019-01-16T09:31:13.013Z,20.67
2019-01-16T09:33:41.264Z,20.87
2019-01-16T09:36:12.543Z,18.20
2019-01-16T09:38:57.587Z,15.13
2019-01-16T09:41:34.852Z,18.20
2019-01-16T09:44:09.555Z,18.30
2019-01-16T09:46:38.198Z,18.50
2019-01-16T09:49:12.153Z,17.10
2019-01-16T09:51:40.622Z,15.50
2019-01-16T09:54:09.537Z,17.20
2019-01-16T09:56:56.288Z,15.23
2019-01-16T09:59:36.930Z,15.47
2019-01-16T10:02:07.981Z,15.07
2019-01-16T10:04:48.867Z,17.57
2019-01-16T10:07:35.532Z,18.67
2019-01-16T10:10:11.061Z,16.97
2019-01-16T10:12:56.075Z,16.30
2019-01-16T10:15:36.839Z,15.47
2019-01-16T10:18:05.232Z,15.53
2019-01-16T10:20:55.666Z,14.10
2019-01-16T10:23:28.021Z,18.63
2019-01-16T10:25:56.392Z,14.07
2019-01-16T10:28:41.465Z,16.80
2019-01-16T10:31:27.013Z,18.60
2019-01-16T10:34:07.585Z,15.70
2019-01-16T10:36:35.982Z,16.80
2019-01-16T10:39:07.419Z,14.17
2019-01-16T10:41:45.006Z,15.50
2019-01-16T10:44:27.942Z,16.80
2019-01-16T10:46:59.269Z,16.33
2019-01-16T10:49:27.471Z,17.80
2019-01-16T10:52:04.819Z,19.37
2019-01-16T10:54:33.418Z,20.60
2019-01-16T10:57:07.948Z,21.70
2019-01-16T10:59:36.816Z,19.53
2019-01-16T11:02:08.218Z,20.70
2019-01-16T11:04:39.377Z,19.20
2019-01-16T11:07:13.621Z,19.90
2019-01-16T11:09:44.986Z,18.40
2019-01-16T11:12:13.265Z,17.20
2019-01-16T11:14:50.890Z,20.67
2019-01-16T11:17:28.728Z,20.30
2019-01-16T11:20:05.882Z,20.57
2019-01-16T11:22:37.073Z,21.13
2019-01-16T11:25:09.571Z,21.73
2019-01-16T11:27:40.612Z,21.10
2019-01-16T11:30:29.400Z,22.40
2019-01-16T11:32:57.728Z,24.23
2019-01-16T11:35:26.415Z,20.30
2019-01-16T11:38:00.217Z,21.00
2019-01-16T11:40:34.700Z,20.63
2019-01-16T11:43:14.972Z,23.20
2019-01-16T11:45:52.494Z,19.90
2019-01-16T11:48:35.824Z,26.50
2019-01-16T11:51:04.477Z,19.70
2019-01-16T11:53:41.859Z,21.33
2019-01-16T11:56:22.537Z,20.13
2019-01-16T11:58:51.057Z,21.43
2019-01-16T12:01:34.496Z,20.47
2019-01-16T12:04:22.734Z,21.93
2019-01-16T12:07:06.979Z,21.47
2019-01-16T12:09:35.770Z,24.00
2019-01-16T12:12:22.349Z,18.30
2019-01-16T12:15:10.677Z,20.30
2019-01-16T12:17:56.853Z,22.77
2019-01-16T12:20:34.606Z,21.30
2019-01-16T12:23:03.623Z,24.97
2019-01-16T12:25:39.709Z,23.10
2019-01-16T12:28:22.832Z,20.70
2019-01-16T12:30:55.102Z,20.90
2019-01-16T12:33:40.667Z,22.33
2019-01-16T12:36:20.278Z,20.07
2019-01-16T12:38:52.935Z,21.60
2019-01-16T12:41:22.526Z,19.73
2019-01-16T12:44:11.317Z,22.50
2019-01-16T12:46:45.734Z,20.83
2019-01-16T12:49:13.910Z,19.70
2019-01-16T12:51:42.346Z,19.53
2019-01-16T12:54:27.556Z,19.30
2019-01-16T12:57:01.987Z,18.87
2019-01-16T12:59:33.135Z,18.00
2019-01-16T13:02:14.109Z,20.17
2019-01-16T13:04:48.558Z,17.47
2019-01-16T13:07:16.656Z,16.70
2019-01-16T13:09:47.937Z,17.63
2019-01-16T13:12:16.233Z,18.20
2019-01-16T13:15:02.840Z,14.63
2019-01-16T13:17:47.557Z,21.07
2019-01-16T13:20:20.833Z,15.77
2019-01-16T13:23:07.966Z,16.47
2019-01-16T13:25:45.457Z,16.47
2019-01-16T13:28:19.909Z,16.60
2019-01-16T13:30:54.259Z,11.80
2019-01-16T13:33:28.596Z,12.30
2019-01-16T13:35:57.583Z,15.67
2019-01-16T13:38:29.048Z,13.20
2019-01-16T13:40:57.744Z,11.97
2019-01-16T13:43:26.776Z,13.70
2019-01-16T13:45:55.770Z,12.70
2019-01-16T13:48:39.303Z,12.47
2019-01-16T13:51:07.875Z,13.60
2019-01-16T13:53:42.379Z,12.50
2019-01-16T13:56:27.241Z,11.70
2019-01-16T13:59:11.549Z,13.57
2019-01-16T14:01:42.804Z,14.50
2019-01-16T14:06:45.371Z,10.83
2019-01-16T14:09:19.683Z,10.17
2019-01-16T14:12:03.268Z,10.63
2019-01-16T14:14:31.812Z,9.97
2019-01-16T14:17:06.233Z,9.47
2019-01-16T14:19:43.743Z,10.40
2019-01-16T14:22:17.879Z,9.33
2019-01-16T14:24:49.482Z,9.53
2019-01-16T14:27:17.865Z,9.30
2019-01-16T14:29:48.852Z,10.03
2019-01-16T14:32:19.863Z,10.77
2019-01-16T14:34:48.390Z,9.83
2019-01-16T14:37:26.449Z,10.87
2019-01-16T14:40:00.805Z,10.20
2019-01-16T14:42:29.353Z,10.73
2019-01-16T14:45:04.435Z,10.10
2019-01-16T14:47:35.871Z,10.27
2019-01-16T14:50:06.737Z,9.67
2019-01-16T14:52:51.842Z,10.70
2019-01-16T14:55:35.931Z,11.17
2019-01-16T14:58:07.337Z,11.70
2019-01-16T15:00:35.838Z,14.80
2019-01-16T15:03:04.451Z,10.07
2019-01-16T15:05:33.228Z,11.17
2019-01-16T15:08:04.412Z,8.90
2019-01-16T15:10:38.835Z,9.70
2019-01-16T15:13:09.851Z,9.77
2019-01-16T15:15:44.123Z,9.50
2019-01-16T15:18:29.353Z,9.37
2019-01-16T15:21:14.426Z,8.80
2019-01-16T15:23:59.913Z,9.53
2019-01-16T15:26:28.161Z,10.40
2019-01-16T15:28:56.622Z,9.37
2019-01-16T15:31:37.506Z,10.77
2019-01-16T15:34:21.778Z,9.60
2019-01-16T15:36:52.863Z,10.90
2019-01-16T15:39:40.148Z,10.23
2019-01-16T15:42:25.380Z,9.63
2019-01-16T15:45:08.871Z,9.77
2019-01-16T15:47:37.419Z,10.67
2019-01-16T15:50:15.345Z,9.87
2019-01-16T15:52:46.672Z,9.87
2019-01-16T15:55:15.472Z,9.57
2019-01-16T15:58:02.160Z,9.73
2019-01-16T16:00:36.273Z,10.80
2019-01-16T16:03:04.782Z,9.70
2019-01-16T16:05:51.917Z,9.97
2019-01-16T16:08:26.116Z,9.90
2019-01-16T16:11:12.596Z,10.03
2019-01-16T16:13:44.607Z,11.30
2019-01-16T16:16:13.149Z,10.53
2019-01-16T16:18:56.985Z,10.70
2019-01-16T16:21:42.730Z,14.40
2019-01-16T16:24:27.555Z,13.90
2019-01-16T16:26:58.909Z,14.87
2019-01-16T16:29:30.380Z,17.93
2019-01-16T16:31:59.069Z,14.73
2019-01-16T16:34:44.802Z,15.53
2019-01-16T16:37:15.821Z,17.27
2019-01-16T16:40:01.358Z,17.20
2019-01-16T16:42:32.513Z,16.23
2019-01-16T16:45:03.537Z,15.47
2019-01-16T16:47:43.548Z,16.00
2019-01-16T16:50:12.493Z,17.40
2019-01-16T16:52:48.281Z,19.97
2019-01-16T16:55:23.551Z,17.30
2019-01-16T16:57:52.293Z,19.63
2019-01-16T17:00:36.220Z,20.53
2019-01-16T17:03:21.640Z,19.33
2019-01-16T17:06:03.530Z,22.07
2019-01-16T17:08:48.868Z,24.80
2019-01-16T17:11:34.034Z,23.13
2019-01-16T17:14:14.861Z,25.40
2019-01-16T17:16:43.547Z,23.47
2019-01-16T17:19:30.622Z,25.40
2019-01-16T17:22:00.003Z,23.80
2019-01-16T17:24:31.538Z,26.97
2019-01-16T17:27:11.862Z,24.10
2019-01-16T17:29:52.197Z,24.80
2019-01-16T17:32:37.105Z,23.70
2019-01-16T17:35:06.780Z,24.87
2019-01-16T17:37:37.864Z,23.30
2019-01-16T17:40:21.919Z,24.80
2019-01-16T17:42:59.512Z,22.60
2019-01-16T17:45:30.690Z,24.20
2019-01-16T17:48:14.695Z,23.20
2019-01-16T17:50:58.629Z,24.93
2019-01-16T17:53:39.561Z,23.23
2019-01-16T17:56:14.373Z,20.13
2019-01-16T17:58:45.347Z,23.90
2019-01-16T18:01:28.948Z,22.60
2019-01-16T18:04:15.927Z,22.20
2019-01-16T18:07:00.186Z,21.63
2019-01-16T18:09:28.834Z,20.93
2019-01-16T18:12:06.576Z,20.43
2019-01-16T18:14:35.276Z,19.47
2019-01-16T18:17:03.565Z,23.47
2019-01-16T18:19:32.410Z,21.17
2019-01-16T18:22:12.851Z,21.10
2019-01-16T18:25:03.996Z,22.87
2019-01-16T18:27:38.948Z,16.90
2019-01-16T18:30:11.421Z,23.30
2019-01-16T18:32:42.864Z,19.27
2019-01-16T18:35:14.138Z,19.57
2019-01-16T18:38:00.824Z,18.23
2019-01-16T18:40:55.208Z,17.57
2019-01-16T18:43:41.167Z,21.00
2019-01-16T18:46:27.830Z,18.10
2019-01-16T18:49:03.073Z,20.93
2019-01-16T18:51:37.672Z,16.53
2019-01-16T18:54:12.394Z,15.83
2019-01-16T18:56:59.663Z,16.07
2019-01-16T18:59:34.287Z,17.63
2019-01-16T19:02:05.622Z,17.07
2019-01-16T19:04:46.398Z,17.40
2019-01-16T19:07:31.202Z,16.70
2019-01-16T19:09:59.985Z,18.80
2019-01-16T19:12:31.730Z,16.10
2019-01-16T19:15:00.641Z,17.20
2019-01-16T19:17:31.883Z,18.17
2019-01-16T19:20:19.879Z,17.60
2019-01-16T19:23:02.926Z,16.63
2019-01-16T19:25:48.711Z,20.23
2019-01-16T19:28:23.376Z,16.67
2019-01-16T19:30:54.832Z,21.60
2019-01-16T19:33:24.079Z,20.33
2019-01-16T19:35:59.380Z,23.00
2019-01-16T19:38:45.979Z,19.77
2019-01-16T19:41:14.674Z,21.47
2019-01-16T19:43:59.820Z,21.27
2019-01-16T19:46:44.881Z,21.13
2019-01-16T19:49:17.416Z,18.20
2019-01-16T19:51:54.953Z,22.73
2019-01-16T19:54:26.414Z,22.40
2019-01-16T19:56:54.842Z,21.60
2019-01-16T19:59:23.945Z,27.80
2019-01-16T20:02:09.449Z,23.07
2019-01-16T20:04:37.824Z,22.87
2019-01-16T20:07:11.901Z,25.43
2019-01-16T20:09:45.951Z,23.13
2019-01-16T20:12:20.457Z,25.60
2019-01-16T20:15:01.267Z,23.33
2019-01-16T20:17:29.972Z,20.17
2019-01-16T20:20:01.106Z,25.60
2019-01-16T20:22:44.470Z,25.23
2019-01-16T20:25:21.940Z,22.90
2019-01-16T20:28:07.410Z,21.57
2019-01-16T20:30:39.265Z,25.40
2019-01-16T20:33:16.263Z,23.60
2019-01-16T20:35:44.480Z,24.60
2019-01-16T20:38:18.685Z,24.00
2019-01-16T20:40:55.525Z,24.60
2019-01-16T20:43:30.219Z,24.03
2019-01-16T20:46:04.456Z,27.80
2019-01-16T20:48:48.464Z,21.20
2019-01-16T20:51:19.498Z,25.70
2019-01-16T20:53:51.596Z,30.23
2019-01-16T20:56:23.133Z,21.87
2019-01-16T20:58:54.589Z,24.87
2019-01-16T21:01:26.149Z,24.90
2019-01-16T21:04:06.850Z,22.93
2019-01-16T21:06:52.219Z,24.70
2019-01-16T21:09:39.030Z,23.13
2019-01-16T21:12:19.187Z,28.62
2019-01-16T21:14:53.937Z,24.03
2019-01-16T21:17:28.970Z,25.40
2019-01-16T21:19:58.172Z,24.10
2019-01-16T21:22:36.758Z,24.43
2019-01-16T21:25:15.971Z,25.27
2019-01-16T21:27:41.124Z,19.73
2019-01-16T21:30:28.029Z,24.23
2019-01-16T21:32:56.399Z,26.50
2019-01-16T21:35:43.427Z,26.00
2019-01-16T21:38:24.290Z,23.33
2019-01-16T21:40:53.103Z,21.93
2019-01-16T21:43:24.440Z,23.30
2019-01-16T21:45:55.642Z,22.77
2019-01-16T21:48:26.670Z,22.10
2019-01-16T21:51:10.869Z,21.80
2019-01-16T21:53:48.388Z,22.40
2019-01-16T21:56:19.664Z,20.60
2019-01-16T21:58:50.968Z,25.03
2019-01-16T22:01:36.177Z,20.73
2019-01-16T22:04:05.660Z,22.00
2019-01-16T22:06:34.061Z,22.73
2019-01-16T22:09:15.268Z,23.40
2019-01-16T22:11:51.439Z,23.87
2019-01-16T22:14:19.950Z,24.17
2019-01-16T22:17:03.212Z,21.30
2019-01-16T22:19:48.711Z,27.70
2019-01-16T22:22:17.418Z,25.62
2019-01-16T22:25:00.674Z,25.97
2019-01-16T22:27:35.153Z,25.47
2019-01-16T22:30:09.696Z,23.13
2019-01-16T22:32:37.947Z,25.48
2019-01-16T22:35:07.353Z,24.50
2019-01-16T22:37:38.374Z,24.63
2019-01-16T22:40:12.528Z,22.73
2019-01-16T22:42:50.074Z,21.33
2019-01-16T22:45:30.299Z,30.02
2019-01-16T22:48:01.580Z,25.60
2019-01-16T22:50:36.842Z,24.50
2019-01-16T22:53:05.496Z,28.23
2019-01-16T22:55:34.150Z,25.37
2019-01-16T22:58:02.977Z,25.20
2019-01-16T23:00:52.087Z,23.10
2019-01-16T23:03:37.131Z,21.77
2019-01-16T23:06:22.078Z,24.53
2019-01-16T23:08:50.583Z,21.47
2019-01-16T23:11:25.501Z,27.07
2019-01-16T23:14:12.298Z,23.65
2019-01-16T23:16:49.092Z,24.17
2019-01-16T23:19:35.937Z,22.70
2019-01-16T23:22:19.399Z,25.73
2019-01-16T23:25:03.317Z,26.43
2019-01-16T23:27:48.159Z,24.23
2019-01-16T23:30:34.109Z,22.70
2019-01-16T23:33:08.358Z,25.02
2019-01-16T23:35:36.745Z,24.77
2019-01-16T23:38:12.655Z,24.98
2019-01-16T23:40:40.952Z,22.73
2019-01-16T23:43:15.013Z,25.32
2019-01-16T23:45:52.972Z,23.38
2019-01-16T23:48:22.032Z,25.40
2019-01-16T23:50:59.532Z,22.37
2019-01-16T23:53:28.058Z,22.75
2019-01-16T23:56:08.578Z,23.85
2019-01-16T23:58:37.044Z,20.80
